createdAt,value
2023-01-15T00:02:09.930Z,11.20
2023-01-15T00:04:38.196Z,11.30
2023-01-15T00:07:08.145Z,11.40
2023-01-15T00:09:36.392Z,11.50
2023-01-15T00:12:05.151Z,11.40
2023-01-15T00:14:33.556Z,11.40
2023-01-15T00:17:01.785Z,11.50
2023-01-15T00:19:30.110Z,11.60
2023-01-15T00:21:58.507Z,11.70
2023-01-15T00:24:45.864Z,11.70
2023-01-15T00:27:32.109Z,11.80
2023-01-15T00:30:00.589Z,11.80
2023-01-15T00:32:29.910Z,11.90
2023-01-15T00:34:59.782Z,11.90
2023-01-15T00:37:29.192Z,12.00
2023-01-15T00:39:58.884Z,12.00
2023-01-15T00:42:27.102Z,12.00
2023-01-15T00:44:56.304Z,12.00
2023-01-15T00:47:24.896Z,11.90
2023-01-15T00:49:53.442Z,12.00
2023-01-15T00:52:21.796Z,11.90
2023-01-15T00:54:50.350Z,11.90
2023-01-15T00:57:19.967Z,11.90
2023-01-15T00:59:48.447Z,11.80
2023-01-15T01:02:16.845Z,11.70
2023-01-15T01:04:45.574Z,11.60
2023-01-15T01:07:14.818Z,11.50
2023-01-15T01:09:43.522Z,11.40
2023-01-15T01:12:12.367Z,11.30
2023-01-15T01:14:42.117Z,11.30
2023-01-15T01:17:10.534Z,11.20
2023-01-15T01:19:38.990Z,11.30
2023-01-15T01:22:09.109Z,11.40
2023-01-15T01:24:37.414Z,11.40
2023-01-15T01:27:08.427Z,11.50
2023-01-15T01:29:36.626Z,11.60
2023-01-15T01:32:07.175Z,11.60
2023-01-15T01:34:36.320Z,11.60
2023-01-15T01:37:04.518Z,11.60
2023-01-15T01:39:34.348Z,11.70
2023-01-15T01:42:02.632Z,11.70
2023-01-15T01:45:00.728Z,11.80
2023-01-15T01:47:32.377Z,11.90
2023-01-15T01:50:04.255Z,12.00
2023-01-15T01:52:37.891Z,12.00
2023-01-15T01:55:07.947Z,12.00
2023-01-15T01:57:36.688Z,12.00
2023-01-15T02:00:07.073Z,11.90
2023-01-15T02:02:45.299Z,11.90
2023-01-15T02:05:20.683Z,11.90
2023-01-15T02:07:49.100Z,11.90
2023-01-15T02:10:18.155Z,11.90
2023-01-15T02:12:54.044Z,11.90
2023-01-15T02:15:28.157Z,11.90
2023-01-15T02:18:04.447Z,11.80
2023-01-15T02:20:37.641Z,11.60
2023-01-15T02:23:24.465Z,11.40
2023-01-15T02:26:40.815Z,11.30
2023-01-15T02:29:14.933Z,11.20
2023-01-15T02:31:46.335Z,11.20
2023-01-15T02:34:22.143Z,11.10
2023-01-15T02:36:55.682Z,11.10
2023-01-15T02:39:30.271Z,11.00
2023-01-15T02:42:04.165Z,11.00
2023-01-15T02:44:42.571Z,11.00
2023-01-15T02:47:14.558Z,11.00
2023-01-15T02:49:45.181Z,11.10
2023-01-15T02:52:21.405Z,11.10
2023-01-15T02:54:54.518Z,11.10
2023-01-15T02:57:25.995Z,11.20
2023-01-15T03:00:03.018Z,11.30
2023-01-15T03:02:38.099Z,11.40
2023-01-15T03:05:11.058Z,11.40
2023-01-15T03:07:47.680Z,11.40
2023-01-15T03:10:17.403Z,11.40
2023-01-15T03:13:06.250Z,11.30
2023-01-15T03:16:11.613Z,11.30
2023-01-15T03:18:46.332Z,11.10
2023-01-15T03:21:22.041Z,11.00
2023-01-15T03:23:55.578Z,10.90
2023-01-15T03:26:28.058Z,10.90
2023-01-15T03:28:57.923Z,10.90
2023-01-15T03:31:27.900Z,10.80
2023-01-15T03:33:59.294Z,10.90
2023-01-15T03:36:27.541Z,10.90
2023-01-15T03:39:01.376Z,10.90
2023-01-15T03:42:03.431Z,10.90
2023-01-15T03:44:38.665Z,10.90
2023-01-15T03:47:23.333Z,10.90
2023-01-15T03:50:00.044Z,11.00
2023-01-15T03:52:44.645Z,11.00
2023-01-15T03:55:16.966Z,11.00
2023-01-15T03:58:00.205Z,11.00
2023-01-15T04:00:37.123Z,11.00
2023-01-15T04:03:09.232Z,11.00
2023-01-15T04:05:39.263Z,11.00
2023-01-15T04:08:09.851Z,11.00
2023-01-15T04:10:38.100Z,10.90
2023-01-15T04:13:10.802Z,10.80
2023-01-15T04:15:41.756Z,10.60
2023-01-15T04:18:11.324Z,10.30
2023-01-15T04:20:39.642Z,9.70
2023-01-15T04:23:08.944Z,9.20
2023-01-15T04:25:37.289Z,8.90
2023-01-15T04:28:06.008Z,8.70
2023-01-15T04:30:34.612Z,8.60
2023-01-15T04:33:02.909Z,8.50
2023-01-15T04:35:32.857Z,8.40
2023-01-15T04:38:02.017Z,8.20
2023-01-15T04:40:47.737Z,8.00
2023-01-15T04:43:33.500Z,8.00
2023-01-15T04:46:02.100Z,7.80
2023-01-15T04:48:31.524Z,7.80
2023-01-15T04:51:04.008Z,7.80
2023-01-15T04:53:32.476Z,7.70
2023-01-15T04:56:06.380Z,7.60
2023-01-15T04:58:36.617Z,7.60
2023-01-15T05:01:06.588Z,7.60
2023-01-15T05:03:34.986Z,7.60
2023-01-15T05:06:05.295Z,7.50
2023-01-15T05:08:33.931Z,7.50
2023-01-15T05:11:07.493Z,7.40
2023-01-15T05:13:36.202Z,7.40
2023-01-15T05:16:15.744Z,7.40
2023-01-15T05:18:45.305Z,7.30
2023-01-15T05:21:21.770Z,7.20
2023-01-15T05:23:51.557Z,7.20
2023-01-15T05:26:21.086Z,7.20
2023-01-15T05:28:49.767Z,7.20
2023-01-15T05:31:20.054Z,7.20
2023-01-15T05:33:50.042Z,7.20
2023-01-15T05:36:21.498Z,7.20
2023-01-15T05:38:49.828Z,7.20
2023-01-15T05:41:37.218Z,7.20
2023-01-15T05:44:08.096Z,7.20
2023-01-15T05:46:38.169Z,7.20
2023-01-15T05:49:08.261Z,7.20
2023-01-15T05:51:39.400Z,7.20
2023-01-15T05:54:10.192Z,7.20
2023-01-15T05:56:39.689Z,7.20
2023-01-15T05:59:08.991Z,7.20
2023-01-15T06:01:37.906Z,7.10
2023-01-15T06:04:07.502Z,7.10
2023-01-15T06:06:37.564Z,7.20
2023-01-15T06:09:06.065Z,7.20
2023-01-15T06:11:34.447Z,7.20
2023-01-15T06:14:02.997Z,7.20
2023-01-15T06:16:31.455Z,7.30
2023-01-15T06:19:02.263Z,7.30
2023-01-15T06:21:30.937Z,7.40
2023-01-15T06:24:00.946Z,7.40
2023-01-15T06:26:29.552Z,7.40
2023-01-15T06:28:57.890Z,7.40
2023-01-15T06:31:27.974Z,7.30
2023-01-15T06:33:56.889Z,7.20
2023-01-15T06:36:26.742Z,7.10
2023-01-15T06:38:55.953Z,7.10
2023-01-15T06:41:45.003Z,7.20
2023-01-15T06:44:33.203Z,7.20
2023-01-15T06:47:23.216Z,7.10
2023-01-15T06:49:54.738Z,7.10
2023-01-15T06:52:24.049Z,7.10
2023-01-15T06:54:52.975Z,6.90
2023-01-15T06:57:22.814Z,6.90
2023-01-15T06:59:51.856Z,6.80
2023-01-15T07:02:21.534Z,6.90
2023-01-15T07:04:50.189Z,6.80
2023-01-15T07:07:21.301Z,6.60
2023-01-15T07:09:49.630Z,6.60
2023-01-15T07:12:18.638Z,6.50
2023-01-15T07:14:48.387Z,6.40
2023-01-15T07:17:17.135Z,6.30
2023-01-15T07:19:45.978Z,6.30
2023-01-15T07:22:14.439Z,6.30
2023-01-15T07:24:42.883Z,6.10
2023-01-15T07:27:11.403Z,6.10
2023-01-15T07:29:39.786Z,6.10
2023-01-15T07:32:09.667Z,6.10
2023-01-15T07:34:38.135Z,6.20
2023-01-15T07:37:06.383Z,6.20
2023-01-15T07:39:35.125Z,6.20
2023-01-15T07:42:20.849Z,6.30
2023-01-15T07:45:06.521Z,6.30
2023-01-15T07:47:53.539Z,6.30
2023-01-15T07:50:25.762Z,6.40
2023-01-15T07:52:54.006Z,6.50
2023-01-15T07:55:22.924Z,6.50
2023-01-15T07:57:51.255Z,6.60
2023-01-15T08:00:23.329Z,6.60
2023-01-15T08:02:53.371Z,6.70
2023-01-15T08:05:22.749Z,6.70
2023-01-15T08:07:50.990Z,6.70
2023-01-15T08:10:20.741Z,6.70
2023-01-15T08:13:08.841Z,6.80
2023-01-15T08:15:42.785Z,6.80
2023-01-15T08:18:12.421Z,6.80
2023-01-15T08:20:40.710Z,6.80
2023-01-15T08:23:10.677Z,6.80
2023-01-15T08:25:39.166Z,6.90
2023-01-15T08:28:07.559Z,6.90
2023-01-15T08:30:36.022Z,6.90
2023-01-15T08:33:04.392Z,6.90
2023-01-15T08:35:34.770Z,6.90
2023-01-15T08:38:06.287Z,7.00
2023-01-15T08:40:36.271Z,6.90
2023-01-15T08:43:04.484Z,7.00
2023-01-15T08:45:32.783Z,7.00
2023-01-15T08:48:01.129Z,6.90
2023-01-15T08:50:29.450Z,6.80
2023-01-15T08:52:59.426Z,6.80
2023-01-15T08:55:27.784Z,6.80
2023-01-15T08:57:56.233Z,6.80
2023-01-15T09:00:25.134Z,6.80
2023-01-15T09:02:53.366Z,6.80
2023-01-15T09:05:21.654Z,6.70
2023-01-15T09:07:52.579Z,6.70
2023-01-15T09:10:54.613Z,6.60
2023-01-15T09:13:23.099Z,6.60
2023-01-15T09:15:51.890Z,6.50
2023-01-15T09:18:20.627Z,6.40
2023-01-15T09:20:48.925Z,6.30
2023-01-15T09:23:17.211Z,6.30
2023-01-15T09:25:55.312Z,6.20
2023-01-15T09:28:23.940Z,6.10
2023-01-15T09:30:52.483Z,6.10
2023-01-15T09:33:21.226Z,6.20
2023-01-15T09:35:50.011Z,6.10
2023-01-15T09:38:20.432Z,6.20
2023-01-15T09:40:52.286Z,6.20
2023-01-15T09:43:33.815Z,6.20
2023-01-15T09:46:06.584Z,6.20
2023-01-15T09:48:53.003Z,6.20
2023-01-15T09:51:33.941Z,6.20
2023-01-15T09:54:22.395Z,6.20
2023-01-15T09:56:51.267Z,6.20
2023-01-15T09:59:33.561Z,6.20
2023-01-15T10:02:06.288Z,6.20
2023-01-15T10:04:42.327Z,6.10
2023-01-15T10:07:20.940Z,6.10
2023-01-15T10:09:57.507Z,6.10
2023-01-15T10:12:39.897Z,6.00
2023-01-15T10:15:23.492Z,6.00
2023-01-15T10:17:54.232Z,6.00
2023-01-15T10:20:39.639Z,5.90
2023-01-15T10:23:24.868Z,5.90
2023-01-15T10:26:01.474Z,5.80
2023-01-15T10:28:31.430Z,5.80
2023-01-15T10:31:09.641Z,5.90
2023-01-15T10:33:55.445Z,5.70
2023-01-15T10:36:29.310Z,5.70
2023-01-15T10:39:03.179Z,5.70
2023-01-15T10:41:41.149Z,5.30
2023-01-15T10:44:16.165Z,4.90
2023-01-15T10:46:51.911Z,4.60
2023-01-15T10:49:21.749Z,4.40
2023-01-15T10:51:53.989Z,4.30
2023-01-15T10:54:27.339Z,4.10
2023-01-15T10:57:02.334Z,4.00
2023-01-15T10:59:40.521Z,4.10
2023-01-15T11:02:27.174Z,4.30
2023-01-15T11:04:55.702Z,4.30
2023-01-15T11:07:28.553Z,4.30
2023-01-15T11:09:58.029Z,4.40
2023-01-15T11:12:46.769Z,4.40
2023-01-15T11:15:35.574Z,4.50
2023-01-15T11:18:29.680Z,4.50
2023-01-15T11:20:57.877Z,4.60
2023-01-15T11:23:26.213Z,4.60
2023-01-15T11:25:56.741Z,4.60
2023-01-15T11:28:40.062Z,4.70
2023-01-15T11:31:08.930Z,4.80
2023-01-15T11:33:39.443Z,4.90
2023-01-15T11:36:20.265Z,5.00
2023-01-15T11:38:50.795Z,5.00
2023-01-15T11:41:22.549Z,5.10
2023-01-15T11:44:16.155Z,5.10
2023-01-15T11:47:04.863Z,5.00
2023-01-15T11:49:52.113Z,5.10
2023-01-15T11:52:23.488Z,5.30
2023-01-15T11:54:55.074Z,5.30
2023-01-15T11:57:29.388Z,5.40
2023-01-15T11:59:58.507Z,5.40
2023-01-15T12:02:34.379Z,5.50
2023-01-15T12:05:08.419Z,5.60
2023-01-15T12:07:40.764Z,5.70
2023-01-15T12:10:24.463Z,5.70
2023-01-15T12:13:07.530Z,5.70
2023-01-15T12:15:46.201Z,5.70
2023-01-15T12:18:46.698Z,5.70
2023-01-15T12:21:30.774Z,5.70
2023-01-15T12:24:12.670Z,5.70
2023-01-15T12:26:50.502Z,5.70
2023-01-15T12:29:24.381Z,5.80
2023-01-15T12:32:00.428Z,5.80
2023-01-15T12:34:38.026Z,5.80
2023-01-15T12:37:16.212Z,5.80
2023-01-15T12:39:48.539Z,6.00
2023-01-15T12:42:39.223Z,6.60
2023-01-15T12:45:11.738Z,7.50
2023-01-15T12:47:45.074Z,8.60
2023-01-15T12:50:28.573Z,9.60
2023-01-15T12:53:04.438Z,10.00
2023-01-15T12:55:38.123Z,10.10
2023-01-15T12:58:18.566Z,10.50
2023-01-15T13:00:48.754Z,10.90
2023-01-15T13:03:24.603Z,11.30
2023-01-15T13:05:55.965Z,11.50
2023-01-15T13:08:32.427Z,12.00
2023-01-15T13:11:00.885Z,12.00
2023-01-15T13:13:34.416Z,11.40
2023-01-15T13:16:19.404Z,10.60
2023-01-15T13:19:02.401Z,9.80
2023-01-15T13:21:34.241Z,9.10
2023-01-15T13:24:27.274Z,8.70
2023-01-15T13:27:07.245Z,8.30
2023-01-15T13:29:47.769Z,8.00
2023-01-15T13:32:20.992Z,7.70
2023-01-15T13:34:52.919Z,7.60
2023-01-15T13:37:27.570Z,7.50
2023-01-15T13:40:03.863Z,7.40
2023-01-15T13:42:33.169Z,7.30
2023-01-15T13:45:07.288Z,7.30
2023-01-15T13:47:38.804Z,7.30
2023-01-15T13:50:16.413Z,7.20
2023-01-15T13:52:45.581Z,7.10
2023-01-15T13:55:34.178Z,7.20
2023-01-15T13:58:02.477Z,7.80
2023-01-15T14:00:34.075Z,8.10
2023-01-15T14:03:04.930Z,8.20
2023-01-15T14:05:35.328Z,8.40
2023-01-15T14:08:17.591Z,8.50
2023-01-15T14:10:48.900Z,8.80
2023-01-15T14:14:04.346Z,9.10
2023-01-15T14:17:06.066Z,9.20
2023-01-15T14:20:01.574Z,9.90
2023-01-15T14:22:54.252Z,10.40
2023-01-15T14:25:45.478Z,10.30
2023-01-15T14:28:32.434Z,10.20
2023-01-15T14:31:24.827Z,10.00
2023-01-15T14:34:12.712Z,10.20
2023-01-15T14:36:51.659Z,10.20
2023-01-15T14:39:29.401Z,10.00
2023-01-15T14:42:20.302Z,9.40
2023-01-15T14:44:59.275Z,9.00
2023-01-15T14:47:34.933Z,8.50
2023-01-15T14:50:39.458Z,8.20
2023-01-15T14:53:38.466Z,8.00
2023-01-15T14:56:17.518Z,7.80
2023-01-15T14:58:52.324Z,7.60
2023-01-15T15:01:33.849Z,7.50
2023-01-15T15:04:12.527Z,7.40
2023-01-15T15:06:48.786Z,7.30
2023-01-15T15:09:28.673Z,7.20
2023-01-15T15:12:23.303Z,7.20
2023-01-15T15:15:01.758Z,7.20
2023-01-15T15:17:41.764Z,7.20
2023-01-15T15:20:25.670Z,7.30
2023-01-15T15:22:57.691Z,7.20
2023-01-15T15:25:32.279Z,7.20
2023-01-15T15:28:06.565Z,7.20
2023-01-15T15:30:37.213Z,7.20
2023-01-15T15:33:14.049Z,7.10
2023-01-15T15:35:47.632Z,7.00
2023-01-15T15:38:19.055Z,7.00
2023-01-15T15:40:51.393Z,6.90
2023-01-15T15:43:43.785Z,6.90
2023-01-15T15:46:43.946Z,6.90
2023-01-15T15:49:14.082Z,6.80
2023-01-15T15:51:48.609Z,6.80
2023-01-15T15:54:19.768Z,6.70
2023-01-15T15:56:52.985Z,6.60
2023-01-15T15:59:32.985Z,6.50
2023-01-15T16:02:09.354Z,6.40
2023-01-15T16:04:45.007Z,6.30
2023-01-15T16:07:15.011Z,6.30
2023-01-15T16:09:50.339Z,6.20
2023-01-15T16:12:19.888Z,6.20
2023-01-15T16:14:50.026Z,6.20
2023-01-15T16:17:19.288Z,6.20
2023-01-15T16:19:50.114Z,6.10
2023-01-15T16:22:21.185Z,6.00
2023-01-15T16:24:58.184Z,5.90
2023-01-15T16:27:33.496Z,5.90
2023-01-15T16:30:02.031Z,5.80
2023-01-15T16:32:33.548Z,5.70
2023-01-15T16:35:16.631Z,5.70
2023-01-15T16:37:48.887Z,5.60
2023-01-15T16:40:27.402Z,5.60
2023-01-15T16:43:07.183Z,5.50
2023-01-15T16:45:37.888Z,5.50
2023-01-15T16:48:27.451Z,5.50
2023-01-15T16:50:58.254Z,5.50
2023-01-15T16:53:35.586Z,5.60
2023-01-15T16:56:04.943Z,5.60
2023-01-15T16:58:37.205Z,5.60
2023-01-15T17:01:27.510Z,5.70
2023-01-15T17:03:56.200Z,5.80
2023-01-15T17:06:28.768Z,5.80
2023-01-15T17:08:58.710Z,5.90
2023-01-15T17:11:30.122Z,5.90
2023-01-15T17:14:22.108Z,5.90
2023-01-15T17:17:12.622Z,5.80
2023-01-15T17:19:41.172Z,5.80
2023-01-15T17:22:16.683Z,5.80
2023-01-15T17:24:49.183Z,5.70
2023-01-15T17:27:18.077Z,5.70
2023-01-15T17:29:46.327Z,5.60
2023-01-15T17:32:17.579Z,5.50
2023-01-15T17:34:46.100Z,5.40
2023-01-15T17:37:15.733Z,5.40
2023-01-15T17:39:43.979Z,5.30
2023-01-15T17:42:15.767Z,5.20
2023-01-15T17:44:44.993Z,5.20
2023-01-15T17:47:14.162Z,5.20
2023-01-15T17:49:42.938Z,5.20
2023-01-15T17:52:19.983Z,5.20
2023-01-15T17:55:05.999Z,5.30
2023-01-15T17:57:52.538Z,5.40
2023-01-15T18:00:37.991Z,5.40
2023-01-15T18:03:24.297Z,5.50
2023-01-15T18:05:53.079Z,5.50
2023-01-15T18:08:26.462Z,5.60
2023-01-15T18:10:55.515Z,5.60
2023-01-15T18:13:24.499Z,5.60
2023-01-15T18:15:54.022Z,5.70
2023-01-15T18:18:22.972Z,5.80
2023-01-15T18:20:51.499Z,5.80
2023-01-15T18:23:20.501Z,5.80
2023-01-15T18:25:51.028Z,5.90
2023-01-15T18:28:19.699Z,5.90
2023-01-15T18:30:48.401Z,5.90
2023-01-15T18:33:17.027Z,5.90
2023-01-15T18:35:45.362Z,5.90
2023-01-15T18:38:13.948Z,5.90
2023-01-15T18:40:42.131Z,5.90
2023-01-15T18:43:29.468Z,5.90
2023-01-15T18:46:29.830Z,5.90
2023-01-15T18:48:58.674Z,5.90
2023-01-15T18:51:27.410Z,5.90
2023-01-15T18:53:56.426Z,5.90
2023-01-15T18:59:22.056Z,5.80
2023-01-15T19:01:50.827Z,5.80
2023-01-15T19:04:20.488Z,5.70
2023-01-15T19:06:49.410Z,5.70
2023-01-15T19:09:20.380Z,5.60
2023-01-15T19:11:48.982Z,5.60
2023-01-15T19:14:35.375Z,5.50
2023-01-15T19:17:37.606Z,5.40
2023-01-15T19:20:07.702Z,5.40
2023-01-15T19:22:54.010Z,5.40
2023-01-15T19:25:23.442Z,5.30
2023-01-15T19:27:51.939Z,5.30
2023-01-15T19:30:21.018Z,5.20
2023-01-15T19:32:51.110Z,5.20
2023-01-15T19:35:19.991Z,5.20
2023-01-15T19:37:49.566Z,5.20
2023-01-15T19:40:20.460Z,5.20
2023-01-15T19:43:06.581Z,5.20
2023-01-15T19:45:53.378Z,5.20
2023-01-15T19:48:41.398Z,5.20
2023-01-15T19:51:09.903Z,5.20
2023-01-15T19:53:40.439Z,5.20
2023-01-15T19:56:09.460Z,5.20
2023-01-15T19:58:38.138Z,5.30
2023-01-15T20:01:08.558Z,5.30
2023-01-15T20:03:38.669Z,5.40
2023-01-15T20:06:09.338Z,5.40
2023-01-15T20:08:37.951Z,5.40
2023-01-15T20:11:09.601Z,5.40
2023-01-15T20:13:53.347Z,5.40
2023-01-15T20:16:25.339Z,5.30
2023-01-15T20:18:56.221Z,5.30
2023-01-15T20:21:24.809Z,5.20
2023-01-15T20:23:53.253Z,5.10
2023-01-15T20:26:24.432Z,5.10
2023-01-15T20:28:52.736Z,5.00
2023-01-15T20:31:21.331Z,5.00
2023-01-15T20:33:50.290Z,5.00
2023-01-15T20:36:20.426Z,5.00
2023-01-15T20:38:48.707Z,5.00
2023-01-15T20:41:34.722Z,5.00
2023-01-15T20:44:20.800Z,5.00
2023-01-15T20:46:49.290Z,5.00
2023-01-15T20:49:27.314Z,5.00
2023-01-15T20:51:58.206Z,5.00
2023-01-15T20:54:27.291Z,5.10
2023-01-15T20:56:55.521Z,5.10
2023-01-15T20:59:24.102Z,5.10
2023-01-15T21:01:54.911Z,5.10
2023-01-15T21:04:24.282Z,5.10
2023-01-15T21:06:52.763Z,5.10
2023-01-15T21:09:23.147Z,5.10
2023-01-15T21:11:51.775Z,5.10
2023-01-15T21:14:20.732Z,5.10
2023-01-15T21:16:51.340Z,5.10
2023-01-15T21:19:21.265Z,5.10
2023-01-15T21:21:49.944Z,5.10
2023-01-15T21:24:18.483Z,5.10
2023-01-15T21:26:48.814Z,5.10
2023-01-15T21:29:17.377Z,5.10
2023-01-15T21:31:46.221Z,5.10
2023-01-15T21:34:14.527Z,5.10
2023-01-15T21:36:43.261Z,5.00
2023-01-15T21:39:13.045Z,5.00
2023-01-15T21:41:59.397Z,5.10
2023-01-15T21:44:34.371Z,5.10
2023-01-15T21:47:05.339Z,5.10
2023-01-15T21:49:33.997Z,5.10
2023-01-15T21:52:03.816Z,5.00
2023-01-15T21:54:32.846Z,5.00
2023-01-15T21:57:01.207Z,5.00
2023-01-15T21:59:31.061Z,5.00
2023-01-15T22:02:00.556Z,5.00
2023-01-15T22:04:31.092Z,5.00
2023-01-15T22:06:59.627Z,5.00
2023-01-15T22:09:27.887Z,5.00
2023-01-15T22:11:56.155Z,5.00
2023-01-15T22:14:26.936Z,5.00
2023-01-15T22:16:58.144Z,4.90
2023-01-15T22:19:28.941Z,4.90
2023-01-15T22:21:59.568Z,4.90
2023-01-15T22:24:30.103Z,4.90
2023-01-15T22:26:59.010Z,5.00
2023-01-15T22:29:29.114Z,5.00
2023-01-15T22:32:00.760Z,5.00
2023-01-15T22:34:29.514Z,5.00
2023-01-15T22:36:57.922Z,5.00
2023-01-15T22:39:27.089Z,5.00
2023-01-15T22:42:13.282Z,5.00
2023-01-15T22:44:44.271Z,5.00
2023-01-15T22:47:14.720Z,5.10
2023-01-15T22:49:42.957Z,5.20
2023-01-15T22:52:11.500Z,5.30
2023-01-15T22:54:41.433Z,5.40
2023-01-15T22:57:09.933Z,5.40
2023-01-15T22:59:38.298Z,5.40
2023-01-15T23:02:07.157Z,5.40
2023-01-15T23:04:36.935Z,5.40
2023-01-15T23:07:05.292Z,5.50
2023-01-15T23:09:33.606Z,5.60
2023-01-15T23:12:02.147Z,5.60
2023-01-15T23:14:30.789Z,5.60
2023-01-15T23:16:59.239Z,5.50
2023-01-15T23:19:28.216Z,5.60
2023-01-15T23:21:57.937Z,5.60
2023-01-15T23:24:26.364Z,5.60
2023-01-15T23:26:54.878Z,5.60
2023-01-15T23:29:23.123Z,5.60
2023-01-15T23:31:51.365Z,5.70
2023-01-15T23:34:19.546Z,5.70
2023-01-15T23:36:47.760Z,5.70
2023-01-15T23:39:17.406Z,5.70
2023-01-15T23:42:03.325Z,5.70
2023-01-15T23:44:48.954Z,5.70
2023-01-15T23:47:17.544Z,5.60
2023-01-15T23:49:45.899Z,5.60
2023-01-15T23:52:14.585Z,5.50
2023-01-15T23:54:44.309Z,5.50
2023-01-15T23:57:13.959Z,5.50
2023-01-15T23:59:44.437Z,5.50
